createdAt,value
2022-08-12T00:08:46.952Z,15.82
2022-08-12T00:23:47.562Z,15.49
2022-08-12T00:38:48.204Z,15.10
2022-08-12T00:53:49.246Z,14.83
2022-08-12T01:08:49.886Z,14.52
2022-08-12T01:23:50.474Z,14.37
2022-08-12T01:38:50.603Z,14.25
2022-08-12T01:53:51.680Z,14.03
2022-08-12T02:08:52.150Z,13.63
2022-08-12T02:23:52.858Z,13.60
2022-08-12T02:38:52.978Z,13.26
2022-08-12T02:54:03.284Z,13.07
2022-08-12T03:09:00.720Z,12.75
2022-08-12T03:24:01.863Z,12.67
2022-08-12T03:39:02.012Z,12.41
2022-08-12T03:54:02.078Z,12.53
2022-08-12T04:09:02.212Z,12.47
2022-08-12T04:24:02.413Z,12.67
2022-08-12T04:39:03.436Z,12.86
2022-08-12T04:54:03.114Z,13.87
2022-08-12T05:09:03.643Z,15.50
2022-08-12T05:24:08.752Z,17.68
2022-08-12T05:39:08.821Z,19.74
2022-08-12T05:54:08.955Z,21.52
2022-08-12T06:09:09.037Z,23.05
2022-08-12T06:24:10.119Z,24.28
2022-08-12T06:39:14.747Z,25.76
2022-08-12T06:54:15.327Z,26.66
2022-08-12T07:10:05.372Z,27.43
2022-08-12T07:24:25.523Z,28.52
2022-08-12T07:39:25.782Z,29.51
2022-08-12T07:54:26.737Z,30.23
2022-08-12T08:09:26.805Z,30.38
2022-08-12T08:24:26.434Z,30.37
2022-08-12T08:39:27.035Z,30.72
2022-08-12T08:54:28.116Z,31.09
2022-08-12T09:09:33.999Z,31.48
2022-08-12T09:24:33.290Z,31.84
2022-08-12T09:40:03.473Z,32.33
2022-08-12T09:54:43.061Z,32.45
2022-08-12T10:09:58.679Z,32.79
2022-08-12T10:24:53.319Z,33.18
2022-08-12T10:40:01.627Z,33.18
2022-08-12T10:54:59.441Z,33.29
2022-08-12T11:10:01.737Z,33.26
2022-08-12T11:25:02.649Z,33.73
2022-08-12T11:55:12.932Z,34.17
2022-08-12T12:10:16.477Z,34.89
2022-08-12T12:25:19.760Z,34.13
2022-08-12T12:40:21.479Z,34.58
2022-08-12T12:55:23.410Z,34.46
2022-08-12T13:10:30.796Z,35.07
2022-08-12T13:25:35.968Z,34.39
2022-08-12T13:40:37.632Z,34.30
2022-08-12T13:55:41.311Z,32.55
2022-08-12T14:10:50.484Z,31.57
2022-08-12T14:25:49.149Z,31.80
2022-08-12T14:40:52.804Z,30.72
2022-08-12T15:10:57.964Z,31.76
2022-08-12T15:26:02.963Z,31.86
2022-08-12T15:41:03.187Z,31.96
2022-08-12T15:56:03.265Z,30.80
2022-08-12T16:11:07.315Z,31.17
2022-08-12T16:26:14.459Z,31.01
2022-08-12T16:41:13.530Z,30.75
2022-08-12T16:56:14.629Z,29.70
2022-08-12T17:11:17.923Z,29.08
2022-08-12T17:26:18.808Z,28.62
2022-08-12T17:41:57.192Z,28.04
2022-08-12T17:56:31.874Z,27.63
2022-08-12T18:12:04.139Z,27.03
2022-08-12T18:26:38.223Z,26.32
2022-08-12T18:41:38.838Z,25.27
2022-08-12T18:56:39.953Z,24.20
2022-08-12T19:11:40.051Z,23.46
2022-08-12T19:26:45.072Z,22.67
2022-08-12T19:42:01.051Z,21.88
2022-08-12T19:56:52.288Z,21.28
2022-08-12T20:12:14.109Z,20.79
2022-08-12T20:27:00.016Z,20.20
2022-08-12T20:42:03.593Z,19.98
2022-08-12T20:57:09.744Z,20.14
2022-08-12T21:12:30.975Z,19.95
2022-08-12T21:27:17.156Z,19.76
2022-08-12T21:42:18.006Z,19.44
2022-08-12T21:57:18.120Z,19.07
2022-08-12T22:12:20.467Z,18.91
2022-08-12T22:27:32.289Z,18.81
2022-08-12T22:42:28.711Z,18.75
2022-08-12T22:57:53.426Z,18.72
2022-08-12T23:12:40.938Z,18.58
2022-08-12T23:27:51.600Z,18.36
2022-08-12T23:42:50.555Z,18.05
2022-08-12T23:58:17.900Z,17.90
